Flight Track Log - Related Links

Times and Time Zones

All times are in EDT time to prevent confusion due to time zone crossing. See the N52267 flight status page for this flight to view local times or setup timezone preferences in your user account.

Time Position Orientation Groundspeed Altitude Reporting Facility
EDT Latitude Longitude Course Direction KTS MPH feet Rate Location/Type
Mon 04:23:19 PM 41.2856 -81.0750 299° West 104 120 2,800  Level Cleveland Center
Mon 04:24:25 PM 41.2894 -81.1192 277° West 103 119 2,800  Level Cleveland Center
Mon 04:25:26 PM 41.2936 -81.1553 279° West 101 116 2,800  Level Cleveland Center
Mon 04:26:27 PM 41.2914 -81.1911 265° West 97 112 2,800 99 Level Cleveland Center
Mon 04:27:27 PM 41.2953 -81.2269 278° West 97 112 3,000 110 Climbing Cleveland Center
Mon 04:28:00 PM 41.5387 -81.3557 299° West  Level Estimated
Mon 04:28:16 PM 41.2950 -81.2575 269° West 98 113 3,000  Level Cleveland Center
Mon 04:29:17 PM 41.2992 -81.2933 279° West 98 113 3,100  Climbing Cleveland Center
Mon 04:30:17 PM 41.2925 -81.3319 257° West 104 120 3,000 -52 Descending Cleveland Center
Mon 04:31:12 PM 41.2881 -81.3653 260° West 106 122 3,000  Level Cleveland Center
Mon 04:32:25 PM 41.2836 -81.4147 263° West 108 124 3,000  Level Cleveland Center
Mon 04:33:19 PM 41.2814 -81.4508 265° West 110 127 3,000  Level Cleveland Center
Mon 04:34:20 PM 41.2767 -81.4894 261° West 103 119 3,000 -94 Level Cleveland Center
Mon 04:35:27 PM 41.2744 -81.5308 266° West 104 120 2,800 -99 Descending Cleveland Center
Mon 04:36:21 PM 41.2742 -81.5667 269° West 106 122 2,800  Level Cleveland Center
Mon 04:37:22 PM 41.2675 -81.6053 257° West 100 115 2,800  Level Cleveland Center
Mon 04:38:29 PM 41.2589 -81.6467 255° West 99 114 2,800 99 Level Cleveland Center
Mon 04:39:23 PM 41.2564 -81.6769 264° West 95 109 3,000 157 Climbing Cleveland Center
Mon 04:40:24 PM 41.2436 -81.7125 244° Southwest 98 113 3,100 45 Climbing Cleveland Center
Mon 04:41:37 PM 41.2286 -81.7511 243° Southwest 107 123 3,100 -45 Level Cleveland Center
Mon 04:42:37 PM 41.2156 -81.7867 244° Southwest 107 123 3,000 -104 Descending Cleveland Center
Mon 04:43:32 PM 41.2028 -81.8194 243° Southwest 104 120 2,900  Descending Cleveland Center
Mon 04:44:33 PM 41.1942 -81.8525 251° West 97 112 3,000 47 Climbing Cleveland Center
Mon 04:45:39 PM 41.1853 -81.8964 255° West 103 119 3,000  Level Cleveland Center
Mon 04:46:34 PM 41.1869 -81.9269 274° West 102 117 3,000 98 Level Cleveland Center
Mon 04:47:41 PM 41.1906 -81.9683 277° West 99 114 3,200 129 Climbing Cleveland Center
Mon 04:48:54 PM 41.1964 -82.0153 279° West 103 119 3,300  Climbing Cleveland Center
Mon 04:49:36 PM 41.2022 -82.0431 286° West 110 127 3,200 -175 Descending Cleveland Center
Mon 04:50:37 PM 41.2081 -82.0819 281° West 109 125 3,000 -98 Descending Cleveland Center
Mon 04:51:38 PM 41.2139 -82.1206 281° West 108 124 3,000  Level Cleveland Center
Mon 04:52:39 PM 41.2172 -82.1622 276° West 107 123 3,000 -99 Level Cleveland Center
Mon 04:53:39 PM 41.2231 -82.1981 282° West 105 121 2,800 -99 Descending Cleveland Center
Mon 04:54:40 PM 41.2289 -82.2342 282° West 104 120 2,800 103 Level Cleveland Center
Mon 04:55:35 PM 41.2344 -82.2703 282° West 99 114 3,000 157 Climbing Cleveland Center
Mon 04:56:35 PM 41.2383 -82.3061 278° West 102 117 3,100  Climbing Cleveland Center
Mon 04:57:36 PM 41.2417 -82.3506 276° West 105 121 3,000  Descending Cleveland Center
Mon 04:58:37 PM 41.2453 -82.3864 278° West 106 122 3,100 98 Climbing Cleveland Center
Mon 04:59:38 PM 41.2511 -82.4225 282° West 104 120 3,200 52 Climbing Cleveland Center
Mon 05:00:32 PM 41.2567 -82.4614 281° West 106 122 3,200 -86 Level Cleveland Center
Mon 05:01:57 PM 41.2642 -82.5114 281° West 109 125 3,000 -43 Descending Cleveland Center
Mon 05:02:52 PM 41.2678 -82.5472 278° West 108 124 3,100 47 Climbing Cleveland Center
Mon 05:04:05 PM 41.2753 -82.5944 282° West 108 124 3,100 55 Level Cleveland Center
Mon 05:04:41 PM 41.2811 -82.6194 287° West 107 123 3,200 66 Climbing Cleveland Center
Mon 05:05:36 PM 41.2867 -82.6528 283° West 106 122 3,200  Level Cleveland Center
Mon 05:06:55 PM 41.2942 -82.7028 281° West 106 122 3,200  Level Cleveland Center
Mon 05:08:01 PM 41.2994 -82.7444 280° West 102 117 3,200  Level Cleveland Center
Mon 05:08:38 PM 41.3033 -82.7667 283° West 105 121 3,200 52 Level Cleveland Center
Mon 05:09:57 PM 41.3106 -82.8194 280° West 106 122 3,300 47 Climbing Cleveland Center
Mon 05:10:45 PM 41.3142 -82.8500 279° West 107 123 3,300 -55 Level Cleveland Center
Mon 05:11:46 PM 41.3175 -82.8917 276° West 111 128 3,200 -47 Descending Cleveland Center
Mon 05:12:53 PM 41.3250 -82.9333 283° West 107 123 3,200  Level Cleveland Center
Mon 05:13:54 PM 41.3325 -82.9753 283° West 109 125 3,200 -49 Level Cleveland Center
Mon 05:14:55 PM 41.3358 -83.0111 277° West 106 122 3,100 -104 Descending Cleveland Center
Mon 05:15:49 PM 41.3414 -83.0475 282° West 108 124 3,000 -104 Descending Cleveland Center
Mon 05:16:50 PM 41.3467 -83.0892 280° West 109 125 2,900 -47 Descending Cleveland Center
Mon 05:17:57 PM 41.3522 -83.1253 282° West 104 120 2,900 -47 Level Cleveland Center
Mon 05:18:58 PM 41.3639 -83.1644 292° West 106 122 2,800 -50 Descending Cleveland Center
Mon 05:19:58 PM 41.3672 -83.2033 277° West 105 121 2,800 50 Level Cleveland Center
Mon 05:20:59 PM 41.3683 -83.2422 272° West 105 121 2,900  Climbing Cleveland Center
Mon 05:22:00 PM 41.3758 -83.2783 285° West 101 116 2,800 -49 Descending Cleveland Center
Mon 05:23:01 PM 41.3811 -83.3175 280° West 99 114 2,800 82 Level Cleveland Center
Mon 05:24:26 PM 41.3964 -83.3706 291° West 97 112 3,000 104 Climbing Cleveland Center
Mon 05:24:56 PM 41.3981 -83.3872 278° West 99 114 3,000 66 Level Cleveland Center
Mon 05:25:57 PM 41.4078 -83.4211 291° West 99 114 3,100 47 Climbing Cleveland Center
Mon 05:27:04 PM 41.4153 -83.4517 288° West 95 109 3,100 50 Level Cleveland Center
Mon 05:27:58 PM 41.4228 -83.4881 285° West 96 110 3,200 111 Climbing Cleveland Center
Mon 05:29:00 PM 41.4316 -83.5353 284° West  Level FlightAware Approximate
Mon 05:36:00 PM 41.5874 -83.7704 323° Northwest  Level FlightAware Approximate
Mon 05:37:00 PM 41.6157 -83.7987 323° Northwest  Level FlightAware Approximate
Mon 05:38:00 PM 41.6439 -83.8270 323° Northwest  Level FlightAware Approximate
Mon 05:39:00 PM 41.6722 -83.8554 323° Northwest  Level FlightAware Approximate
Mon 05:40:00 PM 41.7004 -83.8838 322° Northwest  Level FlightAware Approximate
Mon 05:41:00 PM 41.7283 -83.9128 322° Northwest  Level FlightAware Approximate
Mon 05:42:00 PM 41.7562 -83.9418 322° Northwest  Level FlightAware Approximate
Mon 05:43:00 PM 41.7841 -83.9709 322° Northwest  Level FlightAware Approximate
Mon 05:44:00 PM 41.8119 -84.0000 322° Northwest  Level FlightAware Approximate
Mon 05:45:00 PM 41.8398 -84.0292 322° Northwest  Level FlightAware Approximate
Mon 05:46:00 PM 41.8676 -84.0583 322° Northwest  Level FlightAware Approximate
Mon 05:47:00 PM 41.8955 -84.0875 322° Northwest  Level FlightAware Approximate
Mon 05:48:00 PM 41.9233 -84.1167 322° Northwest  Level FlightAware Approximate
Mon 05:49:00 PM 41.9512 -84.1459 322° Northwest  Level FlightAware Approximate
Mon 05:50:00 PM 41.9790 -84.1752 322° Northwest  Level FlightAware Approximate
Mon 05:51:00 PM 42.0068 -84.2045 322° Northwest  Level FlightAware Approximate
Mon 05:52:00 PM 42.0346 -84.2338 322° Northwest  Level FlightAware Approximate
Mon 05:53:00 PM 42.0627 -84.2626 324° Northwest  Level FlightAware Approximate
Mon 05:54:00 PM 42.0911 -84.2909 324° Northwest  Level FlightAware Approximate
Mon 05:55:00 PM 42.1194 -84.3193 323° Northwest  Level FlightAware Approximate
Mon 05:56:00 PM 42.1478 -84.3476 323° Northwest  Level FlightAware Approximate
Mon 05:57:00 PM 42.1762 -84.3760 323° Northwest  Level FlightAware Approximate
Mon 05:58:00 PM 42.2045 -84.4044 323° Northwest  Level FlightAware Approximate
Mon 05:59:00 PM 42.2329 -84.4328 323° Northwest  Level FlightAware Approximate
Mon 06:00:00 PM 42.2638 -84.4532 350° North  Level FlightAware Approximate
Mon 06:01:00 PM 42.2986 -84.4612 350° North  Level FlightAware Approximate
Mon 06:02:00 PM 42.3335 -84.4692 350° North  Level FlightAware Approximate
Mon 06:03:00 PM 42.3683 -84.4772 350° North  Level FlightAware Approximate
Mon 06:04:00 PM 42.4031 -84.4852 350° North  Level FlightAware Approximate
Mon 06:05:00 PM 42.4379 -84.4932 350° North  Level FlightAware Approximate
Mon 06:06:00 PM 42.4727 -84.5012 350° North  Level FlightAware Approximate
Mon 06:07:00 PM 42.5075 -84.5093 350° North  Level FlightAware Approximate
Mon 06:08:00 PM 42.5424 -84.5173 350° North  Level FlightAware Approximate
Mon 06:09:00 PM 42.5772 -84.5254 350° North  Level FlightAware Approximate
Mon 06:10:00 PM 42.6120 -84.5334 350° North  Level FlightAware Approximate
Mon 06:11:00 PM 42.6468 -84.5415 350° North  Level FlightAware Approximate
Mon 06:12:00 PM 42.6816 -84.5496 350° North  Level FlightAware Approximate
Mon 06:13:00 PM 42.7148 -84.5658 340° North  Level FlightAware Approximate
Mon 06:14:00 PM 42.7491 -84.5775 346° North  Level FlightAware Approximate
Mon 06:15:00 PM 42.7667 -84.5833 346° North  Level FlightAware Approximate
Mon 06:16:00 PM 42.7786 -84.5862 346° North  Level Estimated
Mon 06:17:00 PM 42.7786 -84.5862 346° North  Level Estimated
Mon 06:18:00 PM 42.7786 -84.5862 346° North  Level Estimated

Login

Don't have an account? Register now (free) for customized features, flight alerts, and more!